createdAt,value
2018-05-16T00:01:40.987Z,12.20
2018-05-16T00:04:08.583Z,12.20
2018-05-16T00:06:36.135Z,12.20
2018-05-16T00:09:03.734Z,12.20
2018-05-16T00:11:31.278Z,12.20
2018-05-16T00:13:58.860Z,12.20
2018-05-16T00:16:26.434Z,12.20
2018-05-16T00:18:54.002Z,12.20
2018-05-16T00:21:21.540Z,12.20
2018-05-16T00:23:49.081Z,12.30
2018-05-16T00:26:16.627Z,12.40
2018-05-16T00:28:44.567Z,12.40
2018-05-16T00:31:12.182Z,12.40
2018-05-16T00:33:39.718Z,12.30
2018-05-16T00:36:07.310Z,12.20
2018-05-16T00:38:34.838Z,12.20
2018-05-16T00:41:02.434Z,12.10
2018-05-16T00:43:30.025Z,12.10
2018-05-16T00:45:57.637Z,12.10
2018-05-16T00:48:25.186Z,12.10
2018-05-16T00:51:04.503Z,12.10
2018-05-16T00:53:32.081Z,12.00
2018-05-16T00:55:59.674Z,12.10
2018-05-16T00:58:27.220Z,12.10
2018-05-16T01:00:54.795Z,12.20
2018-05-16T01:03:22.345Z,12.30
2018-05-16T01:05:49.963Z,12.30
2018-05-16T01:08:17.578Z,12.40
2018-05-16T01:10:45.199Z,12.40
2018-05-16T01:13:12.742Z,12.30
2018-05-16T01:15:40.325Z,12.30
2018-05-16T01:18:07.854Z,12.20
2018-05-16T01:20:35.479Z,12.20
2018-05-16T01:23:03.058Z,12.20
2018-05-16T01:25:30.660Z,12.20
2018-05-16T01:27:58.242Z,12.20
2018-05-16T01:30:25.853Z,12.20
2018-05-16T01:32:53.407Z,12.20
2018-05-16T01:35:21.010Z,12.30
2018-05-16T01:37:48.540Z,12.30
2018-05-16T01:40:16.166Z,12.30
2018-05-16T01:42:43.760Z,12.30
2018-05-16T01:45:11.399Z,12.20
2018-05-16T01:47:39.000Z,12.20
2018-05-16T01:50:06.556Z,12.20
2018-05-16T01:52:34.135Z,12.20
2018-05-16T01:55:01.731Z,12.20
2018-05-16T01:57:29.277Z,12.20
2018-05-16T01:59:56.915Z,12.20
2018-05-16T02:02:24.502Z,12.20
2018-05-16T02:04:52.081Z,12.20
2018-05-16T02:07:19.636Z,12.20
2018-05-16T02:09:47.245Z,12.30
2018-05-16T02:12:14.849Z,12.30
2018-05-16T02:14:42.419Z,12.30
2018-05-16T02:17:09.990Z,12.40
2018-05-16T02:19:37.556Z,12.40
2018-05-16T02:22:05.165Z,12.40
2018-05-16T02:24:32.720Z,12.40
2018-05-16T02:27:00.273Z,12.30
2018-05-16T02:29:28.253Z,12.20
2018-05-16T02:31:55.899Z,12.20
2018-05-16T02:34:23.494Z,12.10
2018-05-16T02:36:51.099Z,12.10
2018-05-16T02:39:18.641Z,12.10
2018-05-16T02:41:46.222Z,12.00
2018-05-16T02:44:13.778Z,12.10
2018-05-16T02:46:41.379Z,12.10
2018-05-16T02:49:08.946Z,12.10
2018-05-16T02:51:36.569Z,12.10
2018-05-16T02:54:04.524Z,12.10
2018-05-16T02:56:32.122Z,12.10
2018-05-16T02:58:59.679Z,12.10
2018-05-16T03:01:27.297Z,12.10
2018-05-16T03:03:54.885Z,12.10
2018-05-16T03:06:22.440Z,12.20
2018-05-16T03:08:50.023Z,12.20
2018-05-16T03:11:17.616Z,12.20
2018-05-16T03:13:45.166Z,12.20
2018-05-16T03:16:12.740Z,12.20
2018-05-16T03:18:40.326Z,12.30
2018-05-16T03:21:07.924Z,12.30
2018-05-16T03:23:35.465Z,12.30
2018-05-16T03:26:03.053Z,12.30
2018-05-16T03:28:30.603Z,12.30
2018-05-16T03:30:58.189Z,12.30
2018-05-16T03:33:25.789Z,12.30
2018-05-16T03:35:53.590Z,12.30
2018-05-16T03:38:21.213Z,12.30
2018-05-16T03:40:48.745Z,12.30
2018-05-16T03:43:16.335Z,12.30
2018-05-16T03:45:43.877Z,12.30
2018-05-16T03:48:11.430Z,12.30
2018-05-16T03:50:39.400Z,12.40
2018-05-16T03:53:07.384Z,12.30
2018-05-16T03:55:34.938Z,12.40
2018-05-16T03:58:23.502Z,12.20
2018-05-16T04:01:02.750Z,12.20
2018-05-16T04:03:42.053Z,12.20
2018-05-16T04:06:09.701Z,12.20
2018-05-16T04:08:37.728Z,12.20
2018-05-16T04:11:05.257Z,12.20
2018-05-16T04:13:32.883Z,12.30
2018-05-16T04:16:00.424Z,12.30
2018-05-16T04:18:28.013Z,12.30
2018-05-16T04:20:55.958Z,12.30
2018-05-16T04:23:23.591Z,12.30
2018-05-16T04:25:51.121Z,12.30
2018-05-16T04:28:18.705Z,12.20
2018-05-16T04:30:46.311Z,12.30
2018-05-16T04:33:13.873Z,12.20
2018-05-16T04:35:41.797Z,12.20
2018-05-16T04:38:09.397Z,12.20
2018-05-16T04:40:37.453Z,12.20
2018-05-16T04:43:05.445Z,12.20
2018-05-16T04:45:33.065Z,12.20
2018-05-16T04:48:00.682Z,12.20
2018-05-16T04:50:28.223Z,12.10
2018-05-16T04:52:55.856Z,12.00
2018-05-16T04:55:23.354Z,12.00
2018-05-16T04:57:50.909Z,12.00
2018-05-16T05:00:18.458Z,12.00
2018-05-16T05:02:46.051Z,12.00
2018-05-16T05:05:13.587Z,11.90
2018-05-16T05:07:41.271Z,11.90
2018-05-16T05:10:08.845Z,11.90
2018-05-16T05:12:36.579Z,11.90
2018-05-16T05:15:04.136Z,11.90
2018-05-16T05:17:31.734Z,11.90
2018-05-16T05:19:59.328Z,11.90
2018-05-16T05:22:26.990Z,11.90
2018-05-16T05:24:54.543Z,12.00
2018-05-16T05:27:22.111Z,12.10
2018-05-16T05:29:49.721Z,12.10
2018-05-16T05:32:17.425Z,12.20
2018-05-16T05:34:45.063Z,12.30
2018-05-16T05:37:12.611Z,12.30
2018-05-16T05:39:40.230Z,12.40
2018-05-16T05:42:07.787Z,12.40
2018-05-16T05:44:35.354Z,12.40
2018-05-16T05:47:02.899Z,12.40
2018-05-16T05:49:30.522Z,12.50
2018-05-16T05:51:58.137Z,12.50
2018-05-16T05:54:25.705Z,12.60
2018-05-16T05:56:53.277Z,12.70
2018-05-16T05:59:20.893Z,12.80
2018-05-16T06:01:48.438Z,12.90
2018-05-16T06:04:16.022Z,13.00
2018-05-16T06:06:43.551Z,13.20
2018-05-16T06:09:11.131Z,13.30
2018-05-16T06:11:38.698Z,13.50
2018-05-16T06:14:06.244Z,13.60
2018-05-16T06:16:33.841Z,13.80
2018-05-16T06:19:01.470Z,13.90
2018-05-16T06:21:29.045Z,14.10
2018-05-16T06:23:56.653Z,14.30
2018-05-16T06:26:24.198Z,14.40
2018-05-16T06:28:51.772Z,14.50
2018-05-16T06:31:19.331Z,14.60
2018-05-16T06:33:46.947Z,14.70
2018-05-16T06:36:14.523Z,14.70
2018-05-16T06:38:42.488Z,14.70
2018-05-16T06:41:10.038Z,14.70
2018-05-16T06:43:37.738Z,14.50
2018-05-16T06:46:05.476Z,14.40
2018-05-16T06:48:33.061Z,14.30
2018-05-16T06:51:00.644Z,14.30
2018-05-16T06:53:28.260Z,14.40
2018-05-16T06:56:00.335Z,14.50
2018-05-16T06:58:27.911Z,14.50
2018-05-16T07:00:55.483Z,14.50
2018-05-16T07:03:23.110Z,14.40
2018-05-16T07:05:50.694Z,14.30
2018-05-16T07:08:18.265Z,14.20
2018-05-16T07:10:45.838Z,14.20
2018-05-16T07:13:13.393Z,13.90
2018-05-16T07:15:41.035Z,13.70
2018-05-16T07:18:08.583Z,13.60
2018-05-16T07:20:36.162Z,13.60
2018-05-16T07:23:03.708Z,13.40
2018-05-16T07:25:31.350Z,13.20
2018-05-16T07:27:58.946Z,13.20
2018-05-16T07:30:26.571Z,13.20
2018-05-16T07:32:54.111Z,13.20
2018-05-16T07:35:21.689Z,13.30
2018-05-16T07:37:49.242Z,13.30
2018-05-16T07:40:16.852Z,13.30
2018-05-16T07:42:44.465Z,13.20
2018-05-16T07:45:12.053Z,13.10
2018-05-16T07:47:39.649Z,13.10
2018-05-16T07:50:07.227Z,13.10
2018-05-16T07:52:34.801Z,13.00
2018-05-16T07:55:02.373Z,12.90
2018-05-16T07:57:29.931Z,12.90
2018-05-16T07:59:57.513Z,12.90
2018-05-16T08:02:25.062Z,12.90
2018-05-16T08:04:52.688Z,12.90
2018-05-16T08:07:20.274Z,12.90
2018-05-16T08:09:47.862Z,12.90
2018-05-16T08:12:15.470Z,12.90
2018-05-16T08:14:43.059Z,12.90
2018-05-16T08:17:10.651Z,12.90
2018-05-16T08:19:38.231Z,12.90
2018-05-16T08:22:05.805Z,12.90
2018-05-16T08:24:33.389Z,13.00
2018-05-16T08:27:01.022Z,13.20
2018-05-16T08:29:28.591Z,13.20
2018-05-16T08:31:56.190Z,13.20
2018-05-16T08:34:23.767Z,13.10
2018-05-16T08:36:51.485Z,13.00
2018-05-16T08:39:19.009Z,12.90
2018-05-16T08:41:46.566Z,12.90
2018-05-16T08:44:14.166Z,12.90
2018-05-16T08:46:41.867Z,12.90
2018-05-16T08:49:09.389Z,12.90
2018-05-16T08:51:36.962Z,12.90
2018-05-16T08:54:04.509Z,12.90
2018-05-16T08:56:32.122Z,12.90
2018-05-16T08:58:59.715Z,12.90
2018-05-16T09:01:27.294Z,12.90
2018-05-16T09:03:54.893Z,13.00
2018-05-16T09:06:22.527Z,13.10
2018-05-16T09:08:50.120Z,13.20
2018-05-16T09:11:17.749Z,13.30
2018-05-16T09:13:45.325Z,13.50
2018-05-16T09:16:13.286Z,14.00
2018-05-16T09:18:41.294Z,14.30
2018-05-16T09:21:08.934Z,14.30
2018-05-16T09:23:36.495Z,14.60
2018-05-16T09:26:04.078Z,15.00
2018-05-16T09:28:31.624Z,15.60
2018-05-16T09:30:59.197Z,16.10
2018-05-16T09:33:26.793Z,16.20
2018-05-16T09:35:54.384Z,16.40
2018-05-16T09:38:21.955Z,16.90
2018-05-16T09:40:49.567Z,17.30
2018-05-16T09:43:17.101Z,17.70
2018-05-16T09:45:45.716Z,17.80
2018-05-16T09:48:21.955Z,17.90
2018-05-16T09:50:49.563Z,17.70
2018-05-16T09:53:17.129Z,17.50
2018-05-16T09:55:44.735Z,17.20
2018-05-16T09:58:12.290Z,17.10
2018-05-16T10:00:39.865Z,17.10
2018-05-16T10:03:07.429Z,17.00
2018-05-16T10:05:35.022Z,17.00
2018-05-16T10:08:02.559Z,16.90
2018-05-16T10:10:30.197Z,16.50
2018-05-16T10:12:57.757Z,16.30
2018-05-16T10:15:25.367Z,16.10
2018-05-16T10:17:52.910Z,16.00
2018-05-16T10:20:20.606Z,16.30
2018-05-16T10:22:48.125Z,16.80
2018-05-16T10:25:15.924Z,17.40
2018-05-16T10:27:43.544Z,17.90
2018-05-16T10:30:11.113Z,18.10
2018-05-16T10:32:43.559Z,17.90
2018-05-16T10:35:11.546Z,17.30
2018-05-16T10:37:39.336Z,17.30
2018-05-16T10:40:06.932Z,16.90
2018-05-16T10:42:34.544Z,16.50
2018-05-16T10:45:02.190Z,16.30
2018-05-16T10:47:30.513Z,16.30
2018-05-16T10:49:59.912Z,16.50
2018-05-16T10:52:27.562Z,16.60
2018-05-16T10:54:55.451Z,16.70
2018-05-16T10:57:22.750Z,16.60
2018-05-16T10:59:50.319Z,16.70
2018-05-16T11:02:17.961Z,16.90
2018-05-16T11:04:45.504Z,17.20
2018-05-16T11:07:14.337Z,17.90
2018-05-16T11:09:41.874Z,18.40
2018-05-16T11:12:09.503Z,18.80
2018-05-16T11:14:37.129Z,19.00
2018-05-16T11:17:04.722Z,19.30
2018-05-16T11:19:32.307Z,19.80
2018-05-16T11:21:59.952Z,20.30
2018-05-16T11:24:27.520Z,20.80
2018-05-16T11:26:55.067Z,21.00
2018-05-16T11:29:23.522Z,21.00
2018-05-16T11:31:51.094Z,21.00
2018-05-16T11:34:19.038Z,22.50
2018-05-16T11:36:46.628Z,22.50
2018-05-16T11:39:14.202Z,22.50
2018-05-16T11:41:41.768Z,22.80
2018-05-16T11:44:09.342Z,23.50
2018-05-16T11:46:36.974Z,24.30
2018-05-16T11:49:04.539Z,25.10
2018-05-16T11:51:32.191Z,25.40
2018-05-16T11:53:59.726Z,25.30
2018-05-16T11:56:27.734Z,24.50
2018-05-16T11:58:56.386Z,24.50
2018-05-16T12:01:23.935Z,24.40
2018-05-16T12:03:52.293Z,23.90
2018-05-16T12:06:20.735Z,22.70
2018-05-16T12:08:49.939Z,22.70
2018-05-16T12:11:18.880Z,21.00
2018-05-16T12:13:46.482Z,19.60
2018-05-16T12:16:14.335Z,18.60
2018-05-16T12:18:42.368Z,18.00
2018-05-16T12:21:10.404Z,17.30
2018-05-16T12:23:38.016Z,16.80
2018-05-16T12:26:05.669Z,16.40
2018-05-16T12:28:33.229Z,15.80
2018-05-16T12:31:10.973Z,15.70
2018-05-16T12:33:38.647Z,15.80
2018-05-16T12:36:06.267Z,16.00
2018-05-16T12:38:33.854Z,16.60
2018-05-16T12:41:01.441Z,17.30
2018-05-16T12:43:31.893Z,18.00
2018-05-16T12:45:59.939Z,19.20
2018-05-16T12:48:27.506Z,19.20
2018-05-16T12:50:55.071Z,19.20
2018-05-16T12:53:22.653Z,19.30
2018-05-16T12:55:50.296Z,19.50
2018-05-16T12:58:17.993Z,19.90
2018-05-16T13:00:45.537Z,19.90
2018-05-16T13:03:13.218Z,20.20
2018-05-16T13:05:40.854Z,20.00
2018-05-16T13:08:08.542Z,19.70
2018-05-16T13:10:36.087Z,19.50
2018-05-16T13:13:03.796Z,19.70
2018-05-16T13:15:31.378Z,20.10
2018-05-16T13:17:59.023Z,20.20
2018-05-16T13:20:27.409Z,21.20
2018-05-16T13:23:01.326Z,22.60
2018-05-16T13:25:30.927Z,22.60
2018-05-16T13:27:59.019Z,23.50
2018-05-16T13:30:31.609Z,22.30
2018-05-16T13:33:07.947Z,21.40
2018-05-16T13:35:38.969Z,21.10
2018-05-16T13:38:09.173Z,20.90
2018-05-16T13:40:37.321Z,22.30
2018-05-16T13:43:05.109Z,22.30
2018-05-16T13:45:32.680Z,23.20
2018-05-16T13:48:00.254Z,24.80
2018-05-16T13:50:27.805Z,25.70
2018-05-16T13:52:55.392Z,26.10
2018-05-16T13:55:22.979Z,27.80
2018-05-16T13:57:50.582Z,29.50
2018-05-16T14:00:18.201Z,29.50
2018-05-16T14:02:45.837Z,28.00
2018-05-16T14:05:13.363Z,26.10
2018-05-16T14:07:40.935Z,24.30
2018-05-16T14:10:08.474Z,22.40
2018-05-16T14:12:37.504Z,21.30
2018-05-16T14:15:05.831Z,20.20
2018-05-16T14:17:33.484Z,19.60
2018-05-16T14:20:01.138Z,19.60
2018-05-16T14:22:28.766Z,19.90
2018-05-16T14:24:56.355Z,20.20
2018-05-16T14:27:24.095Z,20.70
2018-05-16T14:29:51.861Z,21.60
2018-05-16T14:32:28.030Z,23.60
2018-05-16T14:34:55.583Z,26.00
2018-05-16T14:37:23.166Z,26.50
2018-05-16T14:39:51.139Z,24.50
2018-05-16T14:42:20.087Z,23.50
2018-05-16T14:44:47.655Z,23.50
2018-05-16T14:47:15.223Z,23.40
2018-05-16T14:49:42.853Z,23.40
2018-05-16T14:52:10.478Z,23.90
2018-05-16T14:54:39.215Z,24.50
2018-05-16T14:57:06.757Z,24.90
2018-05-16T14:59:36.271Z,26.90
2018-05-16T15:02:03.873Z,28.70
2018-05-16T15:04:31.433Z,27.90
2018-05-16T15:06:59.081Z,26.40
2018-05-16T15:09:26.624Z,25.30
2018-05-16T15:11:54.174Z,24.10
2018-05-16T15:14:21.768Z,23.50
2018-05-16T15:16:49.344Z,23.10
2018-05-16T15:19:16.939Z,22.80
2018-05-16T15:21:44.494Z,22.50
2018-05-16T15:24:12.082Z,22.10
2018-05-16T15:26:39.662Z,21.80
2018-05-16T15:29:07.254Z,21.50
2018-05-16T15:31:34.790Z,21.10
2018-05-16T15:34:02.375Z,20.40
2018-05-16T15:36:29.918Z,20.00
2018-05-16T15:38:57.620Z,19.90
2018-05-16T15:41:25.208Z,19.90
2018-05-16T15:43:53.222Z,19.50
2018-05-16T15:46:20.799Z,19.50
2018-05-16T15:48:48.377Z,19.60
2018-05-16T15:51:15.967Z,19.90
2018-05-16T15:53:43.598Z,20.70
2018-05-16T15:56:11.141Z,21.90
2018-05-16T15:58:38.776Z,23.50
2018-05-16T16:01:06.306Z,23.80
2018-05-16T16:03:33.925Z,23.40
2018-05-16T16:06:01.523Z,22.90
2018-05-16T16:08:29.062Z,22.40
2018-05-16T16:10:57.115Z,21.60
2018-05-16T16:13:24.728Z,21.60
2018-05-16T16:15:52.296Z,21.60
2018-05-16T16:18:19.872Z,22.00
2018-05-16T16:20:47.488Z,22.10
2018-05-16T16:23:23.199Z,22.10
2018-05-16T16:25:50.964Z,21.80
2018-05-16T16:28:18.575Z,21.50
2018-05-16T16:30:46.166Z,20.80
2018-05-16T16:33:13.786Z,20.50
2018-05-16T16:35:41.342Z,20.00
2018-05-16T16:38:09.036Z,19.40
2018-05-16T16:40:36.760Z,19.10
2018-05-16T16:43:05.089Z,18.90
2018-05-16T16:45:33.076Z,18.90
2018-05-16T16:48:00.756Z,18.90
2018-05-16T16:50:32.359Z,18.80
2018-05-16T16:53:01.356Z,18.70
2018-05-16T16:55:29.168Z,18.60
2018-05-16T16:58:04.684Z,18.60
2018-05-16T17:00:32.284Z,18.50
2018-05-16T17:03:00.016Z,18.80
2018-05-16T17:05:27.608Z,20.30
2018-05-16T17:07:55.198Z,22.40
2018-05-16T17:10:23.276Z,24.10
2018-05-16T17:12:50.894Z,25.30
2018-05-16T17:15:42.271Z,25.80
2018-05-16T17:18:10.698Z,26.00
2018-05-16T17:20:42.971Z,25.80
2018-05-16T17:23:10.703Z,25.80
2018-05-16T17:25:38.379Z,26.00
2018-05-16T17:28:05.958Z,24.70
2018-05-16T17:30:33.705Z,23.10
2018-05-16T17:33:01.260Z,21.60
2018-05-16T17:35:28.842Z,20.60
2018-05-16T17:37:56.514Z,19.80
2018-05-16T17:40:24.077Z,19.20
2018-05-16T17:42:51.672Z,18.70
2018-05-16T17:45:19.683Z,18.10
2018-05-16T17:47:47.213Z,18.00
2018-05-16T17:50:14.749Z,17.90
2018-05-16T17:52:42.312Z,17.80
2018-05-16T17:55:09.894Z,17.60
2018-05-16T17:57:37.476Z,17.50
2018-05-16T18:00:05.051Z,17.40
2018-05-16T18:02:38.610Z,17.30
2018-05-16T18:05:06.253Z,17.30
2018-05-16T18:07:39.033Z,17.20
2018-05-16T18:10:06.658Z,17.00
2018-05-16T18:12:34.261Z,16.80
2018-05-16T18:15:16.392Z,16.20
2018-05-16T18:17:43.948Z,15.90
2018-05-16T18:20:11.606Z,15.70
2018-05-16T18:22:42.444Z,15.50
2018-05-16T18:25:11.103Z,15.30
2018-05-16T18:27:38.742Z,15.10
2018-05-16T18:30:06.317Z,15.00
2018-05-16T18:32:33.969Z,14.80
2018-05-16T18:35:01.566Z,14.60
2018-05-16T18:37:29.132Z,14.40
2018-05-16T18:39:56.725Z,14.40
2018-05-16T18:42:24.412Z,14.40
2018-05-16T18:44:51.905Z,14.40
2018-05-16T18:47:19.533Z,14.40
2018-05-16T18:49:47.073Z,14.30
2018-05-16T18:52:14.752Z,14.40
2018-05-16T18:54:43.078Z,14.50
2018-05-16T18:57:11.074Z,14.50
2018-05-16T18:59:40.219Z,14.50
2018-05-16T19:02:07.980Z,14.60
2018-05-16T19:04:35.521Z,14.60
2018-05-16T19:07:03.169Z,14.60
2018-05-16T19:09:30.779Z,14.70
2018-05-16T19:11:58.370Z,14.70
2018-05-16T19:14:26.390Z,14.70
2018-05-16T19:16:53.974Z,14.70
2018-05-16T19:19:21.510Z,14.60
2018-05-16T19:21:49.120Z,14.50
2018-05-16T19:24:17.102Z,14.40
2018-05-16T19:26:44.719Z,14.40
2018-05-16T19:29:12.264Z,14.30
2018-05-16T19:31:39.889Z,14.30
2018-05-16T19:34:07.473Z,14.30
2018-05-16T19:36:35.042Z,14.30
2018-05-16T19:39:02.566Z,14.20
2018-05-16T19:41:30.135Z,14.30
2018-05-16T19:43:57.683Z,14.20
2018-05-16T19:46:25.372Z,14.20
2018-05-16T19:48:57.522Z,14.10
2018-05-16T19:51:25.068Z,14.10
2018-05-16T19:53:52.654Z,14.00
2018-05-16T19:56:20.239Z,14.00
2018-05-16T19:58:47.805Z,14.00
2018-05-16T20:01:15.768Z,14.00
2018-05-16T20:03:48.220Z,14.00
2018-05-16T20:06:15.944Z,13.90
2018-05-16T20:08:43.506Z,13.90
2018-05-16T20:11:11.154Z,13.90
2018-05-16T20:13:38.748Z,13.90
2018-05-16T20:16:06.340Z,13.90
2018-05-16T20:18:33.955Z,13.80
2018-05-16T20:21:01.554Z,13.80
2018-05-16T20:23:29.251Z,13.80
2018-05-16T20:25:56.889Z,13.80
2018-05-16T20:28:24.487Z,13.80
2018-05-16T20:30:52.075Z,13.80
2018-05-16T20:33:19.702Z,13.80
2018-05-16T20:35:47.252Z,13.70
2018-05-16T20:38:14.826Z,13.70
2018-05-16T20:40:42.349Z,13.70
2018-05-16T20:43:10.001Z,13.70
2018-05-16T20:45:37.620Z,13.70
2018-05-16T20:48:05.282Z,13.70
2018-05-16T20:50:32.845Z,13.60
2018-05-16T20:53:00.419Z,13.60
2018-05-16T20:55:27.975Z,13.60
2018-05-16T20:57:55.643Z,13.60
2018-05-16T21:00:23.203Z,13.60
2018-05-16T21:02:50.787Z,13.60
2018-05-16T21:05:18.505Z,13.60
2018-05-16T21:07:46.094Z,13.50
2018-05-16T21:10:13.608Z,13.40
2018-05-16T21:12:41.159Z,13.30
2018-05-16T21:15:09.118Z,13.20
2018-05-16T21:17:36.691Z,13.20
2018-05-16T21:20:04.214Z,13.20
2018-05-16T21:22:31.794Z,13.20
2018-05-16T21:24:59.314Z,13.20
2018-05-16T21:27:26.901Z,13.20
2018-05-16T21:29:54.467Z,13.20
2018-05-16T21:32:22.031Z,13.20
2018-05-16T21:34:49.610Z,13.20
2018-05-16T21:37:17.171Z,13.20
2018-05-16T21:39:44.806Z,13.10
2018-05-16T21:42:12.737Z,13.00
2018-05-16T21:44:40.709Z,13.00
2018-05-16T21:47:08.288Z,13.00
2018-05-16T21:49:35.959Z,13.00
2018-05-16T21:52:03.489Z,13.10
2018-05-16T21:54:31.071Z,13.10
2018-05-16T21:56:58.617Z,13.10
2018-05-16T21:59:26.170Z,13.00
2018-05-16T22:01:53.730Z,12.80
2018-05-16T22:04:21.313Z,12.60
2018-05-16T22:06:48.846Z,12.50
2018-05-16T22:09:16.529Z,12.50
2018-05-16T22:11:44.069Z,12.40
2018-05-16T22:14:11.689Z,12.50
2018-05-16T22:16:39.265Z,12.50
2018-05-16T22:19:06.836Z,12.60
2018-05-16T22:21:34.429Z,12.60
2018-05-16T22:24:02.417Z,12.60
2018-05-16T22:26:29.975Z,12.60
2018-05-16T22:28:57.581Z,12.60
2018-05-16T22:31:30.682Z,12.60
2018-05-16T22:34:03.798Z,12.60
2018-05-16T22:36:37.070Z,12.60
2018-05-16T22:39:10.839Z,12.60
2018-05-16T22:41:43.935Z,12.60
2018-05-16T22:44:16.926Z,12.60
2018-05-16T22:46:44.499Z,12.60
2018-05-16T22:49:12.094Z,12.60
2018-05-16T22:51:39.710Z,12.60
2018-05-16T22:54:07.274Z,12.60
2018-05-16T22:56:34.835Z,12.60
2018-05-16T22:59:02.418Z,12.60
2018-05-16T23:01:29.965Z,12.70
2018-05-16T23:03:57.537Z,12.70
2018-05-16T23:06:25.115Z,12.60
2018-05-16T23:08:52.695Z,12.60
2018-05-16T23:11:20.237Z,12.60
2018-05-16T23:13:48.209Z,12.60
2018-05-16T23:16:15.806Z,12.70
2018-05-16T23:18:43.353Z,12.70
2018-05-16T23:21:10.941Z,12.70
2018-05-16T23:23:38.881Z,12.60
2018-05-16T23:26:06.497Z,12.60
2018-05-16T23:28:34.093Z,12.50
2018-05-16T23:31:01.704Z,12.50
2018-05-16T23:33:29.285Z,12.50
2018-05-16T23:35:56.863Z,12.50
2018-05-16T23:38:24.456Z,12.40
2018-05-16T23:40:52.006Z,12.40
2018-05-16T23:43:19.578Z,12.30
2018-05-16T23:45:47.203Z,12.30
2018-05-16T23:48:14.814Z,12.30
2018-05-16T23:50:42.378Z,12.20
2018-05-16T23:53:09.933Z,12.20
2018-05-16T23:55:37.667Z,12.20
2018-05-16T23:58:05.316Z,12.20
